Tiempo atmosférico en la estación meteorológica de Priego de Cordoba, Córdoba (520 m.)



Fecha
DESCASC
Temp. máxima en grados centígrados (hora)
DESCASC
Temp. mínima en grados centígrados (hora)
DESCASC
Temp. media en grados centígrados
DESCASC
Racha de viento máxima en m/sg (hora)
DESCASC
Velocidad máxima media en intervalos de 10 minutos(hora)
DESCASC
Precipitaciones diarias en mm
DESCASC
Precipitaciones de 00:00 a 06:00 en mm
DESCASC
Precipitaciones de 06:00 a 12:00 en mm
DESCASC
Precipitaciones de 12:00 a 18:00 en mm
DESCASC
Precipitaciones de 18:00 a 24:00 en mm
DESCASC
14-02-2019 21.2 (15:20) 2.3 (07:40) 11.8 7.5 (13:00) 5 (12:40) 0 0 0 0 0
13-02-2019 18.7 (14:40) 2.2 (08:50) 10.5 6.39 (15:10) 4.17 (16:10) 0 0 0 0 0
12-02-2019 18.7 (13:40) 3.4 (07:20) 11.1 8.06 (14:40) 5 (14:50) 0 0 0 0 0
11-02-2019 15.4 (15:10) 6.7 (23:59) 11 7.5 (16:10) 4.72 (16:30) 0 0 0 0 0
10-02-2019 12.5 (16:20) 2.3 (00:00) 7.4 6.39 (14:00) 3.89 (14:00) 0 0 0 0 0
09-02-2019 17.7 (14:30) 1.7 (00:00) 9.7 5.83 (16:10) 4.17 (15:50) 0 0 0 0 0
08-02-2019 20.8 (15:10) 1.3 (00:00) 11 6.67 (16:10) 4.44 (16:00) 0 0 0 0 0
07-02-2019 17.2 (14:00) 2.1 (00:00) 9.7 8.33 (15:30) 5.28 (15:10) 0 0 0 0 0
06-02-2019 19.7 (13:50) 1.9 (00:00) 10.8 6.11 (14:40) 4.17 (14:40) 0 0 0 0 0
05-02-2019 17.4 (15:30) -0.5 (-00:0) 8.4 7.22 (15:50) 4.17 (13:20) 0 0 0 0 0
04-02-2019 13.8 (14:50) -3.2 (-00:0) 5.3 6.67 (16:30) 4.72 (17:00) 0 0 0 0 0
03-02-2019 9 (14:50) -1.2 (-00:0) 3.9 12.5 (00:30) 6.94 (00:30) 0 0 0 0 0
02-02-2019 8.8 (15:30) 4.5 (00:00) 6.7 15.83 (23:00) 8.89 (00:40) 0.4 0.2 0.2 0 0
01-02-2019 11.1 (06:50) 5.7 (00:00) 8.4 18.33 (19:00) 11.11 (17:40) 37 14.8 17.8 3.6 0.8
31-01-2019 13.1 (15:40) 8.3 (00:00) 10.7 15 (13:50) 9.17 (16:50) 12 4.4 5.2 0.6 1.8
30-01-2019 12 (15:40) 7.2 (00:00) 9.6 10.83 (10:00) 6.39 (20:20) 2.6 0 0 0 2.6
29-01-2019 10.6 (12:10) 6.1 (00:00) 8.4 11.11 (13:50) 7.5 (14:00) 0 0 0 0 0
28-01-2019 12.5 (15:10) 0.4 (00:00) 6.5 11.39 (23:00) 6.39 (16:00) 0 0 0 0 0
27-01-2019 14 (14:00) 5.1 (00:00) 9.5 10.83 (12:10) 7.22 (12:10) 0 0 0 0 0
26-01-2019 17.4 (14:00) 1.2 (00:00) 9.3 5.56 (14:30) 3.61 (14:10) 0 0 0 0 0
25-01-2019 16.6 (15:10) 3.1 (00:00) 9.9 8.89 (15:50) 5.56 (15:50) 0 0 0 0 0
24-01-2019 15.3 (16:50) 5.3 (00:00) 10.3 8.61 (01:00) 5.83 (01:30) 0 0 0 0 0
23-01-2019 11.2 (19:50) 6 (00:00) 8.6 11.67 (16:30) 6.39 (23:50) 0 0 0 0 0
22-01-2019 10 (14:40) -1.6 (-00:0) 4.2 9.72 (22:20) 5.83 (22:10) 0.6 0 0.2 0 0.4
21-01-2019 10.2 (16:30) -0.8 (-00:0) 4.7 7.78 (15:40) 5.28 (15:00) 0 0 0 0 0
20-01-2019 11.1 (16:30) 6 (00:00) 8.6 12.78 (12:00) 6.67 (04:00) 10 5.6 3.4 1 0
19-01-2019 12.1 (13:10) 4.4 (00:00) 8.3 7.5 (23:40) 4.17 (23:59) 6 0 0 0.4 5.6

Gráficas

Temp. máximas Temp. mínimas Temp. medias Precipitaciones Rachas de viento máximas Velocidades máximas media en intervalos de 10 minutos

Datos horarios

Fecha y hora oficial Temperatura (ºC) Velocidad del viento (km/h) Dirección del viento Racha (km/h) Dirección de racha Precipitación (mm) Presión (hPa) Tendencia (hPa) Humedad (%)
2019-02-17 23:00:00 6.8 13 Sudoeste 15 Sudoeste 0 -- -- 78
2019-02-17 22:00:00 8.5 12 Sudoeste 14 Sudoeste 0 -- -- 71
2019-02-17 21:00:00 10.2 9 Sudoeste 12 Sudoeste 0 -- -- 65
2019-02-17 20:00:00 12.7 5 Sudoeste 9 Sur 0 -- -- 55
2019-02-17 19:00:00 14.7 5 Este 13 Nordeste 0 -- -- 46
2019-02-17 18:00:00 16.4 10 Nordeste 14 Nordeste 0 -- -- 42
2019-02-17 17:00:00 17.6 11 Nordeste 17 Nordeste 0 -- -- 39
2019-02-17 16:00:00 17.7 14 Nordeste 21 Nordeste 0 -- -- 38
2019-02-17 15:00:00 18.2 10 Nordeste 18 Nordeste 0 -- -- 36
2019-02-17 14:00:00 17.6 10 Nordeste 15 Nordeste 0 -- -- 37
2019-02-17 13:00:00 17.5 3 Nordeste 10 Norte 0 -- -- 36
2019-02-17 12:00:00 14.6 5 Norte 13 Norte 0 -- -- 39
2019-02-17 11:00:00 13.1 4 Nordeste 5 Nordeste 0 -- -- 42
2019-02-17 10:00:00 7.9 0 Calma 12 Sudoeste 0 -- -- 61
2019-02-17 09:00:00 2.2 7 Sudoeste 12 Sudoeste 0 -- -- 82
2019-02-17 08:00:00 1.6 5 Sudoeste 10 Sudoeste 0 -- -- 85
2019-02-17 07:00:00 1.4 8 Sudoeste 12 Sudoeste 0 -- -- 87
2019-02-17 06:00:00 1.9 3 Sur 13 Sudoeste 0 -- -- 86
2019-02-17 05:00:00 2.2 6 Sudoeste 11 Sudoeste 0 -- -- 87
2019-02-17 04:00:00 3.4 5 Sudoeste 10 Oeste 0 -- -- 83
2019-02-17 03:00:00 4.4 0 Calma 6 Oeste 0 -- -- 83
2019-02-17 02:00:00 5.4 0 Calma 10 Sudoeste 0 -- -- 80
2019-02-17 01:00:00 5.3 10 Sudoeste 13 Sudoeste 0 -- -- 86
2019-02-17 00:00:00 6.7 3 Sudeste 10 Noroeste 0 -- -- 84
2019-02-16 23:00:00 7.8 3 Sur 13 Sudoeste 0 -- -- 81
2019-02-16 22:00:00 9.2 6 Sudoeste 9 Sudoeste 0 -- -- 77
2019-02-16 21:00:00 10.9 7 Sur 13 Sur 0 -- -- 71
2019-02-16 20:00:00 11.7 10 Sur 17 Sudoeste 0 -- -- 68
2019-02-16 19:00:00 13.6 13 Sudoeste 22 Sudoeste 0 -- -- 61
2019-02-16 18:00:00 16.1 9 Sudoeste 15 Sudoeste 0 -- -- 46
2019-02-16 17:00:00 16.8 12 Nordeste 18 Nordeste 0 -- -- 38
2019-02-16 16:00:00 17.4 14 Nordeste 23 Nordeste 0 -- -- 36
2019-02-16 15:00:00 17.6 13 Nordeste 21 Norte 0 -- -- 37
2019-02-16 14:00:00 17.6 10 Nordeste 16 Nordeste 0 -- -- 35
2019-02-16 13:00:00 16.6 10 Norte 21 Nordeste 0 -- -- 38
2019-02-16 12:00:00 16.5 9 Nordeste 18 Nordeste 0 -- -- 35
2019-02-16 11:00:00 15 10 Nordeste 18 Nordeste 0 -- -- 37
2019-02-16 10:00:00 10.1 4 Norte 13 Oeste 0 -- -- 58
2019-02-16 09:00:00 6.5 7 Sudoeste 11 Sudoeste 0 -- -- 69
2019-02-16 08:00:00 7 5 Oeste 11 Este 0 -- -- 61
2019-02-16 07:00:00 7.2 5 Sudoeste 10 Sudeste 0 -- -- 64
2019-02-16 06:00:00 7.4 0 Calma 10 Sudoeste 0 -- -- 66
2019-02-16 05:00:00 6.5 6 Sudoeste 11 Sudeste 0 -- -- 75
2019-02-16 04:00:00 6.4 6 Sudoeste 10 Sudoeste 0 -- -- 78
2019-02-16 03:00:00 6.9 5 Sudoeste 13 Oeste 0 -- -- 77
2019-02-16 02:00:00 7.5 3 Sur 13 Sudoeste 0 -- -- 76
2019-02-16 01:00:00 7.7 4 Sudoeste 13 Sur 0 -- -- 78
2019-02-16 00:00:00 8.4 4 Sudoeste 11 Sudoeste 0 -- -- 75
2019-02-15 23:00:00 11.1 4 Sudoeste 22 Este 0 -- -- 64
2019-02-15 22:00:00 8.9 9 Sudoeste 11 Sudoeste 0 -- -- 79
2019-02-15 21:00:00 10.3 8 Sudoeste 12 Sudoeste 0 -- -- 72
2019-02-15 20:00:00 12.5 7 Sudoeste 12 Nordeste 0 -- -- 63
2019-02-15 19:00:00 14.1 9 Nordeste 18 Nordeste 0 -- -- 56
2019-02-15 18:00:00 16.1 14 Nordeste 21 Nordeste 0 -- -- 50
2019-02-15 17:00:00 17.4 16 Nordeste 23 Nordeste 0 -- -- 48
2019-02-15 16:00:00 17.5 15 Nordeste 23 Nordeste 0 -- -- 48
2019-02-15 15:00:00 17.5 15 Nordeste 23 Nordeste 0 -- -- 50
2019-02-15 14:00:00 17.3 15 Nordeste 22 Nordeste 0 -- -- 49
2019-02-15 13:00:00 17.5 4 Noroeste 10 Sur 0 -- -- 45
2019-02-15 12:00:00 16.7 5 Sur 9 Sudeste 0 -- -- 48
2019-02-15 11:00:00 11.9 4 Sudoeste 7 Sudoeste 0 -- -- 71
2019-02-15 10:00:00 6.6 3 Sudoeste 10 Sudoeste 0 -- -- 87
2019-02-15 09:00:00 2.4 8 Sudoeste 11 Sudoeste 0 -- -- 96
2019-02-15 08:00:00 2 6 Sudoeste 14 Sudoeste 0 -- -- 94
2019-02-15 07:00:00 2.4 8 Sudoeste 9 Sudoeste 0 -- -- 92
2019-02-15 06:00:00 2.7 5 Sudoeste 8 Sudoeste 0 -- -- 92
2019-02-15 05:00:00 3.5 4 Sudoeste 7 Sudoeste 0 -- -- 89
2019-02-15 04:00:00 3.7 6 Sudoeste 8 Sudoeste 0 -- -- 88
2019-02-15 03:00:00 4.8 4 Sudoeste 12 Sudoeste 0 -- -- 86
2019-02-15 02:00:00 5.5 6 Sudoeste 9 Sudoeste 0 -- -- 83
2019-02-15 01:00:00 5.9 4 Sur 10 Oeste 0 -- -- 84
2019-02-15 00:00:00 5.6 7 Sudoeste 12 Sudoeste 0 -- -- 85
2019-02-14 23:00:00 7.3 5 Sudoeste 7 Sudoeste 0 -- -- 79
2019-02-14 22:00:00 8.3 5 Sudoeste 6 Sudoeste 0 -- -- 77
2019-02-14 21:00:00 10.2 5 Sudoeste 9 Sudoeste 0 -- -- 69
2019-02-14 20:00:00 12.3 6 Sur 9 Oeste 0 -- -- 61
2019-02-14 19:00:00 14.1 6 Nordeste 15 Nordeste 0 -- -- 52
2019-02-14 18:00:00 16.4 13 Nordeste 19 Nordeste 0 -- -- 47
2019-02-14 17:00:00 17.5 14 Nordeste 19 Nordeste 0 -- -- 43
2019-02-14 16:00:00 19.9 10 Sudeste 21 Sur 0 -- -- 37
2019-02-14 15:00:00 20.5 9 Sur 19 Sudeste 0 -- -- 35
2019-02-14 14:00:00 18.8 8 Sudeste 25 Sudeste 0 -- -- 36
2019-02-14 13:00:00 18 16 Sur 27 Sur 0 -- -- 38
2019-02-14 12:00:00 16.9 17 Sur 26 Sur 0 -- -- 34
2019-02-14 11:00:00 14.6 10 Sur 18 Sur 0 -- -- 40
2019-02-14 10:00:00 8.4 4 Sudoeste 12 Sudoeste 0 -- -- 64
2019-02-14 09:00:00 3.5 9 Sudoeste 13 Sudoeste 0 -- -- 82
2019-02-14 08:00:00 3 5 Sudoeste 15 Sudoeste 0 -- -- 84
2019-02-14 07:00:00 3.3 8 Sudoeste 12 Sudoeste 0 -- -- 82
2019-02-14 06:00:00 3.5 6 Sudoeste 12 Sudoeste 0 -- -- 82
2019-02-14 05:00:00 3.9 9 Sudoeste 12 Sudoeste 0 -- -- 81
2019-02-14 04:00:00 3.3 9 Sudoeste 10 Sudoeste 0 -- -- 84
2019-02-14 03:00:00 5.9 0 Calma 5 Sudoeste 0 -- -- 75
2019-02-14 02:00:00 5.5 0 Calma 6 Sudoeste 0 -- -- 81
2019-02-14 01:00:00 5.3 4 Sudoeste 9 Sudoeste 0 -- -- 84
2019-02-14 00:00:00 6.9 4 Este 10 Norte 0 -- -- 78
2019-02-13 23:00:00 8 3 Este 8 Sudoeste 0 -- -- 74
2019-02-13 22:00:00 8.3 5 Sudoeste 8 Sudoeste 0 -- -- 72
2019-02-13 21:00:00 9.7 4 Sudoeste 10 Sudoeste 0 -- -- 64
2019-02-13 20:00:00 11.8 10 Sur 12 Sudoeste 0 -- -- 54
2019-02-13 19:00:00 13.5 6 Nordeste 17 Nordeste 0 -- -- 57
2019-02-13 18:00:00 15.8 13 Nordeste 18 Nordeste 0 -- -- 51
2019-02-13 17:00:00 17 13 Nordeste 20 Nordeste 0 -- -- 47
2019-02-13 16:00:00 17.6 10 Norte 23 Nordeste 0 -- -- 45
2019-02-13 15:00:00 17.9 12 Nordeste 21 Norte 0 -- -- 40
2019-02-13 14:00:00 17.8 5 Nordeste 15 Noroeste 0 -- -- 39
2019-02-13 13:00:00 16.3 4 Norte 12 Sudoeste 0 -- -- 38
2019-02-13 12:00:00 15.6 3 Sudoeste 7 Sur 0 -- -- 46
2019-02-13 11:00:00 12.2 2 Sur 6 Sudoeste 0 -- -- 70
2019-02-13 10:00:00 6.2 3 Sudoeste 9 Sudoeste 0 -- -- 93
2019-02-13 09:00:00 2.8 6 Sudoeste 8 Sudoeste 0 -- -- 97
2019-02-13 08:00:00 2.6 5 Sudoeste 8 Sudoeste 0 -- -- 94
2019-02-13 07:00:00 3.5 4 Sudoeste 6 Sudoeste 0 -- -- 95
2019-02-13 06:00:00 4.1 4 Sudoeste 5 Sudoeste 0 -- -- 94
2019-02-13 05:00:00 4.8 0 Calma 9 Sudoeste 0 -- -- 94
2019-02-13 04:00:00 5 6 Sudoeste 10 Sudoeste 0 -- -- 93
2019-02-13 03:00:00 5.7 8 Sudoeste 10 Sudoeste 0 -- -- 92
2019-02-13 02:00:00 6.1 5 Sudoeste 8 Sudoeste 0 -- -- 91
2019-02-13 01:00:00 7 6 Sudoeste 8 Sudoeste 0 -- -- 88
2019-02-13 00:00:00 8.4 0 Calma 7 Sudoeste 0 -- -- 84
2019-02-12 23:00:00 9.6 6 Sudoeste 10 Sudoeste 0 -- -- 79
2019-02-12 22:00:00 10.8 6 Sudoeste 9 Sudoeste 0 -- -- 75
2019-02-12 21:00:00 11.9 6 Sudoeste 9 Oeste 0 -- -- 69
2019-02-12 20:00:00 13 6 Sur 13 Sur 0 -- -- 66
2019-02-12 19:00:00 13.5 5 Este 6 Nordeste 0 -- -- 68
2019-02-12 18:00:00 14.4 6 Nordeste 12 Nordeste 0 -- -- 64
2019-02-12 17:00:00 14.8 9 Nordeste 17 Nordeste 0 -- -- 64
2019-02-12 16:00:00 15.1 11 Nordeste 21 Nordeste 0 -- -- 62
2019-02-12 15:00:00 14.8 12 Norte 29 Norte 0 -- -- 63
2019-02-12 14:00:00 17.2 13 Sur 23 Sur 0 -- -- 52
2019-02-12 13:00:00 17.6 12 Sur 22 Sur 0 -- -- 53
2019-02-12 12:00:00 16.1 16 Sur 26 Sur 0 -- -- 56
2019-02-12 11:00:00 13.4 2 Sur 6 Sudoeste 0 -- -- 73
2019-02-12 10:00:00 7.8 4 Sudoeste 9 Sudoeste 0 -- -- 93
2019-02-12 09:00:00 4.2 7 Sudoeste 11 Sudoeste 0 -- -- 98
2019-02-12 08:00:00 3.6 8 Sudoeste 14 Sudoeste 0 -- -- 97
2019-02-12 07:00:00 3.7 8 Sudoeste 9 Sudoeste 0 -- -- 96
2019-02-12 06:00:00 3.8 4 Sudoeste 9 Sudoeste 0 -- -- 96
2019-02-12 05:00:00 3.8 8 Sudoeste 10 Sudoeste 0 -- -- 94
2019-02-12 04:00:00 4.3 5 Sudoeste 10 Sudoeste 0 -- -- 94
2019-02-12 03:00:00 4.4 9 Sudoeste 13 Sudoeste 0 -- -- 94
2019-02-12 02:00:00 4.9 9 Sudoeste 10 Sudoeste 0 -- -- 92
2019-02-12 01:00:00 5.4 6 Sudoeste 8 Sudoeste 0 -- -- 91
2019-02-12 00:00:00 6.7 3 Sudoeste 6 Sudoeste 0 -- -- 88
2019-02-11 23:00:00 7.2 5 Oeste 11 Sudoeste 0 -- -- 88
2019-02-11 22:00:00 8.1 8 Sudoeste 10 Sudoeste 0 -- -- 84
2019-02-11 21:00:00 9.7 6 Sudoeste 8 Sudoeste 0 -- -- 77
2019-02-11 20:00:00 11.7 2 Norte 12 Nordeste 0 -- -- 69
2019-02-11 19:00:00 12.8 7 Nordeste 15 Norte 0 -- -- 66
2019-02-11 18:00:00 14.3 9 Norte 22 Norte 0 -- -- 61
2019-02-11 17:00:00 14.9 13 Norte 27 Norte 0 -- -- 57
2019-02-11 16:00:00 15.2 17 Nordeste 26 Norte 0 -- -- 60
2019-02-11 15:00:00 15.3 15 Nordeste 23 Nordeste 0 -- -- 63
2019-02-11 14:00:00 15 10 Norte 21 Nordeste 0 -- -- 65
2019-02-11 13:00:00 14.6 14 Nordeste 22 Nordeste 0 -- -- 67
2019-02-11 12:00:00 14.2 13 Nordeste 19 Nordeste 0 -- -- 72
2019-02-11 11:00:00 13.4 7 Nordeste 13 Este 0 -- -- 76
2019-02-11 10:00:00 10.5 4 Sudoeste 9 Sudoeste 0 -- -- 87
2019-02-11 09:00:00 8.4 8 Sudoeste 9 Sudoeste 0 -- -- 92
2019-02-11 08:00:00 9 4 Sudoeste 10 Sur 0 -- -- 90
2019-02-11 07:00:00 9.1 9 Sudoeste 10 Sudoeste 0 -- -- 89
2019-02-11 06:00:00 9.5 4 Sudoeste 6 Sudoeste 0 -- -- 84
2019-02-11 05:00:00 9.3 4 Sudoeste 9 Sudoeste 0 -- -- 83
2019-02-11 04:00:00 9.2 5 Sudoeste 7 Sur 0 -- -- 83
2019-02-11 03:00:00 9.3 0 Calma 6 Sudoeste 0 -- -- 82
2019-02-11 02:00:00 9.1 4 Sudoeste 10 Oeste 0 -- -- 83
2019-02-11 01:00:00 9 5 Sur 10 Sudoeste 0 -- -- 83
2019-02-11 00:00:00 8.9 6 Sudoeste 10 Sudoeste 0 -- -- 84
2019-02-10 23:00:00 9.1 4 Sur 8 Oeste 0 -- -- 81
2019-02-10 22:00:00 9.8 3 Sur 7 Sudoeste 0 -- -- 78
2019-02-10 21:00:00 10.1 4 Sudoeste 5 Sur 0 -- -- 76
2019-02-10 20:00:00 10.5 3 Sudoeste 4 Sudoeste 0 -- -- 74
2019-02-10 19:00:00 11 0 Calma 6 Nordeste 0 -- -- 69
2019-02-10 18:00:00 11.5 6 Nordeste 13 Este 0 -- -- 67
2019-02-10 17:00:00 12.1 8 Nordeste 13 Nordeste 0 -- -- 65
2019-02-10 16:00:00 11.9 6 Nordeste 19 Nordeste 0 -- -- 66
2019-02-10 15:00:00 11 11 Norte 19 Norte 0 -- -- 69
2019-02-10 14:00:00 11 14 Norte 23 Norte 0 -- -- 69
2019-02-10 13:00:00 11.5 5 Nordeste 10 Sudeste 0 -- -- 65
2019-02-10 12:00:00 11.3 0 Calma 9 Sur 0 -- -- 68
2019-02-10 11:00:00 9.4 2 Este 4 Este 0 -- -- 85
2019-02-10 10:00:00 6.7 3 Sudoeste 7 Oeste 0 -- -- 95
2019-02-10 09:00:00 4.1 3 Sudoeste 12 Oeste 0 -- -- 96
2019-02-10 08:00:00 3.2 3 Sudoeste 8 Noroeste 0 -- -- 94
2019-02-10 07:00:00 2.7 3 Sudoeste 6 Sudoeste 0 -- -- 95
2019-02-10 06:00:00 2.5 6 Sudoeste 9 Sudoeste 0 -- -- 95
2019-02-10 05:00:00 2.6 5 Sudoeste 8 Sudoeste 0 -- -- 94
2019-02-10 04:00:00 2.9 4 Sudoeste 7 Sudoeste 0 -- -- 90
2019-02-10 03:00:00 3.3 6 Oeste 13 Sudoeste 0 -- -- 94
2019-02-10 02:00:00 3.6 11 Sudoeste 13 Sudoeste 0 -- -- 91
2019-02-10 01:00:00 4.1 3 Sudoeste 11 Sudoeste 0 -- -- 87
2019-02-10 00:00:00 4.8 7 Sudoeste 13 Sudoeste 0 -- -- 84
2019-02-09 23:00:00 5.7 10 Sudoeste 11 Sudoeste 0 -- -- 81
2019-02-09 22:00:00 6.7 8 Sudoeste 10 Sudoeste 0 -- -- 76
2019-02-09 21:00:00 8.5 7 Sudoeste 12 Sudoeste 0 -- -- 74
2019-02-09 20:00:00 11.1 0 Calma 8 Nordeste 0 -- -- 71
2019-02-09 19:00:00 12.6 4 Este 18 Nordeste 0 -- -- 66
2019-02-09 18:00:00 15.4 9 Este 18 Nordeste 0 -- -- 60
2019-02-09 17:00:00 16.2 11 Nordeste 21 Nordeste 0 -- -- 58
2019-02-09 16:00:00 16.7 12 Nordeste 20 Nordeste 0 -- -- 54
2019-02-09 15:00:00 17 8 Nordeste 18 Nordeste 0 -- -- 53
2019-02-09 14:00:00 16.6 7 Norte 12 Norte 0 -- -- 47
2019-02-09 13:00:00 15.4 4 Norte 8 Norte 0 -- -- 55
2019-02-09 12:00:00 12.7 0 Calma 5 Noroeste 0 -- -- 66
2019-02-09 11:00:00 10.9 2 Sur 8 Sudoeste 0 -- -- 78
2019-02-09 10:00:00 5.1 5 Sudoeste 9 Sudoeste 0 -- -- 96
2019-02-09 09:00:00 2.1 6 Sudoeste 9 Sudoeste 0 -- -- 96
2019-02-09 08:00:00 1.8 6 Sudoeste 9 Sudoeste 0 -- -- 95
2019-02-09 07:00:00 2.5 4 Sudoeste 5 Sudoeste 0 -- -- 94
2019-02-09 06:00:00 2.8 3 Sur 9 Sudoeste 0 -- -- 94
2019-02-09 05:00:00 2.9 9 Sudoeste 13 Sudoeste 0 -- -- 95
2019-02-09 04:00:00 2.7 10 Sudoeste 16 Sudoeste 0 -- -- 92
2019-02-09 03:00:00 3.6 8 Sudoeste 13 Sudoeste 0 -- -- 90
2019-02-09 02:00:00 4.1 8 Sudoeste 10 Sudoeste 0 -- -- 88
2019-02-09 01:00:00 5.1 5 Sudoeste 11 Sudoeste 0 -- -- 87
2019-02-09 00:00:00 5.6 7 Sudoeste 10 Sudoeste 0 -- -- 84
2019-02-08 23:00:00 6.8 4 Sudoeste 7 Sudoeste 0 -- -- 79
2019-02-08 22:00:00 7.5 2 Sudoeste 9 Sudoeste 0 -- -- 78
2019-02-08 21:00:00 9.2 7 Sudoeste 11 Sudoeste 0 -- -- 70
2019-02-08 20:00:00 12.3 0 Calma 17 Nordeste 0 -- -- 61
2019-02-08 19:00:00 13.7 10 Nordeste 15 Nordeste 0 -- -- 58
2019-02-08 18:00:00 17.5 7 Nordeste 21 Sudoeste 0 -- -- 46
2019-02-08 17:00:00 20.2 14 Sudoeste 24 Sudoeste 0 -- -- 35
2019-02-08 16:00:00 20.3 16 Sudoeste 23 Sudoeste 0 -- -- 28
2019-02-08 15:00:00 20.7 6 Sur 18 Sudoeste 0 -- -- 37
2019-02-08 14:00:00 19.8 12 Sudoeste 19 Sudoeste 0 -- -- 36
2019-02-08 13:00:00 17.6 5 Sudoeste 10 Oeste 0 -- -- 44
2019-02-08 12:00:00 14.2 3 Norte 6 Norte 0 -- -- 52
2019-02-08 11:00:00 11.7 0 Calma 8 Sudoeste 0 -- -- 66
2019-02-08 10:00:00 5.4 6 Sudoeste 9 Sudoeste 0 -- -- 86
2019-02-08 09:00:00 2.5 4 Sur 9 Sudoeste 0 -- -- 94
2019-02-08 08:00:00 2.1 5 Sudoeste 13 Sudoeste 0 -- -- 93
2019-02-08 07:00:00 1.7 12 Sudoeste 17 Sudoeste 0 -- -- 95
2019-02-08 06:00:00 1.6 8 Sudoeste 13 Sudoeste 0 -- -- 92
2019-02-08 05:00:00 1.7 10 Sudoeste 12 Sudoeste 0 -- -- 91
2019-02-08 04:00:00 2.2 10 Sudoeste 11 Sudoeste 0 -- -- 91
2019-02-08 03:00:00 2.6 7 Sudoeste 9 Sudoeste 0 -- -- 87
2019-02-08 02:00:00 2.7 8 Sudoeste 12 Sudoeste 0 -- -- 88
2019-02-08 01:00:00 3.8 8 Sudoeste 10 Sudoeste 0 -- -- 84
2019-02-08 00:00:00 4.6 8 Sudoeste 11 Sudoeste 0 -- -- 79
2019-02-07 23:00:00 4.9 11 Sudoeste 13 Sudoeste 0 -- -- 79
2019-02-07 22:00:00 6.9 5 Sudoeste 9 Sudoeste 0 -- -- 71
2019-02-07 21:00:00 8.3 9 Sudoeste 11 Sudoeste 0 -- -- 67
2019-02-07 20:00:00 11.7 4 Sudoeste 11 Nordeste 0 -- -- 53
2019-02-07 19:00:00 12.9 9 Nordeste 18 Norte 0 -- -- 49
2019-02-07 18:00:00 15.3 10 Nordeste 20 Norte 0 -- -- 44
2019-02-07 17:00:00 16.6 12 Norte 21 Nordeste 0 -- -- 42
2019-02-07 16:00:00 17 13 Norte 30 Norte 0 -- -- 41
2019-02-07 15:00:00 17 18 Norte 26 Norte 0 -- -- 44
2019-02-07 14:00:00 17.2 13 Nordeste 21 Nordeste 0 -- -- 42
2019-02-07 13:00:00 16.3 10 Nordeste 15 Nordeste 0 -- -- 46
2019-02-07 12:00:00 14.1 6 Nordeste 12 Nordeste 0 -- -- 60
2019-02-07 11:00:00 10.9 2 Sudoeste 4 Sudeste 0 -- -- 74
2019-02-07 10:00:00 6.1 3 Sur 9 Sudoeste 0 -- -- 90
2019-02-07 09:00:00 2.2 8 Sudoeste 11 Sudoeste 0 -- -- 94
2019-02-07 08:00:00 2.2 10 Sudoeste 12 Sudoeste 0 -- -- 94
2019-02-07 07:00:00 2.4 7 Sudoeste 14 Sudoeste 0 -- -- 93
2019-02-07 06:00:00 2.5 10 Sudoeste 12 Sudoeste 0 -- -- 92
2019-02-07 05:00:00 3.1 7 Sudoeste 9 Sudoeste 0 -- -- 91
2019-02-07 04:00:00 3.5 5 Sudoeste 10 Sudoeste 0 -- -- 89
2019-02-07 03:00:00 4.3 8 Sudoeste 12 Sudoeste 0 -- -- 85
2019-02-07 02:00:00 4.9 12 Sudoeste 13 Sudoeste 0 -- -- 84
2019-02-07 01:00:00 5.5 9 Sudoeste 10 Sudoeste 0 -- -- 80
2019-02-07 00:00:00 6 6 Sudoeste 15 Sudoeste 0 -- -- 77
2019-02-06 23:00:00 6.4 10 Sudoeste 12 Sudoeste 0 -- -- 75
2019-02-06 22:00:00 7.3 7 Sudoeste 13 Sudoeste 0 -- -- 72
2019-02-06 21:00:00 9 9 Sudoeste 11 Sudoeste 0 -- -- 66
2019-02-06 20:00:00 12.4 0 Calma 12 Nordeste 0 -- -- 56
2019-02-06 19:00:00 13.6 10 Nordeste 13 Nordeste 0 -- -- 54
2019-02-06 18:00:00 16.2 13 Nordeste 19 Nordeste 0 -- -- 47
2019-02-06 17:00:00 17.6 12 Nordeste 18 Nordeste 0 -- -- 46
2019-02-06 16:00:00 18.2 11 Nordeste 21 Nordeste 0 -- -- 45
2019-02-06 15:00:00 18.7 12 Nordeste 22 Nordeste 0 -- -- 44
2019-02-06 14:00:00 19.7 4 Nordeste 10 Norte 0 -- -- 38
2019-02-06 13:00:00 17.5 2 Norte 7 Norte 0 -- -- 36
2019-02-06 12:00:00 15.2 3 Norte 5 Norte 0 -- -- 44
2019-02-06 11:00:00 12.2 3 Sudoeste 6 Sudoeste 0 -- -- 65
2019-02-06 10:00:00 5.9 5 Sudoeste 12 Sudoeste 0 -- -- 83
2019-02-06 09:00:00 2.3 9 Sudoeste 12 Sudoeste 0 -- -- 92
2019-02-06 08:00:00 2.3 7 Sudoeste 10 Sudoeste 0 -- -- 92
2019-02-06 07:00:00 2 8 Sudoeste 13 Sudoeste 0 -- -- 90
2019-02-06 06:00:00 2.1 4 Sudoeste 14 Sudoeste 0 -- -- 90
2019-02-06 05:00:00 2.3 11 Sudoeste 14 Sudoeste 0 -- -- 92
2019-02-06 04:00:00 2.4 10 Sudoeste 12 Sudoeste 0 -- -- 89
2019-02-06 03:00:00 3.2 3 Sudoeste 10 Sudoeste 0 -- -- 86
2019-02-06 02:00:00 3.4 7 Sudoeste 8 Sudoeste 0 -- -- 86
2019-02-06 01:00:00 3.9 5 Sudoeste 9 Sudoeste 0 -- -- 84
2019-02-06 00:00:00 5.2 3 Sudoeste 7 Sudoeste 0 -- -- 78
2019-02-05 23:00:00 6.3 5 Sudoeste 9 Oeste 0 -- -- 74
2019-02-05 22:00:00 7 5 Oeste 10 Sudoeste 0 -- -- 71
2019-02-05 21:00:00 8.9 6 Sudoeste 8 Sudoeste 0 -- -- 64
2019-02-05 20:00:00 11.2 0 Calma 14 Nordeste 0 -- -- 53
2019-02-05 19:00:00 12.5 9 Nordeste 15 Nordeste 0 -- -- 48
2019-02-05 18:00:00 15.2 9 Nordeste 18 Norte 0 -- -- 42
2019-02-05 17:00:00 17 8 Norte 19 Noroeste 0 -- -- 38
2019-02-05 16:00:00 17.1 11 Norte 26 Norte 0 -- -- 37
2019-02-05 15:00:00 16.8 14 Nordeste 20 Nordeste 0 -- -- 39
2019-02-05 14:00:00 16.4 13 Nordeste 21 Nordeste 0 -- -- 31
2019-02-05 13:00:00 15.4 12 Nordeste 15 Nordeste 0 -- -- 33
2019-02-05 12:00:00 12.2 4 Norte 7 Norte 0 -- -- 47
2019-02-05 11:00:00 9.5 0 Calma 9 Sudoeste 0 -- -- 56
2019-02-05 10:00:00 3.6 7 Sudoeste 12 Sudoeste 0 -- -- 79
2019-02-05 09:00:00 -0.4 11 Sudoeste 12 Sudoeste 0 -- -- 90
2019-02-05 08:00:00 -0.4 6 Sudoeste 10 Sudoeste 0 -- -- 88
2019-02-05 07:00:00 -0.3 8 Sudoeste 12 Sudoeste 0 -- -- 88
2019-02-05 06:00:00 0.1 8 Sudoeste 10 Sudoeste 0 -- -- 88
2019-02-05 05:00:00 0.2 4 Sudoeste 7 Sudoeste 0 -- -- 89
2019-02-05 04:00:00 0.5 6 Sudoeste 9 Sudoeste 0 -- -- 89
2019-02-05 03:00:00 0.6 7 Sudoeste 9 Sudoeste 0 -- -- 89
2019-02-05 02:00:00 1.1 6 Sudoeste 9 Sudoeste 0 -- -- 88
2019-02-05 01:00:00 1.3 7 Sudoeste 9 Sudoeste 0 -- -- 87
2019-02-05 00:00:00 1.8 8 Sudoeste 10 Sudoeste 0 -- -- 86
2019-02-04 23:00:00 3.3 5 Sudoeste 8 Sudoeste 0 -- -- 81
2019-02-04 22:00:00 3.8 6 Sudoeste 11 Sudoeste 0 -- -- 79
2019-02-04 21:00:00 5.6 5 Sudoeste 9 Sudoeste 0 -- -- 72
2019-02-04 20:00:00 7.9 3 Oeste 6 Sudoeste 0 -- -- 61
2019-02-04 19:00:00 9.6 6 Este 19 Nordeste 0 -- -- 52
2019-02-04 18:00:00 11.5 13 Nordeste 23 Nordeste 0 -- -- 47
2019-02-04 17:00:00 12.9 17 Nordeste 24 Nordeste 0 -- -- 46
2019-02-04 16:00:00 13.3 15 Nordeste 21 Nordeste 0 -- -- 42
2019-02-04 15:00:00 13.7 9 Nordeste 15 Norte 0 -- -- 35
2019-02-04 14:00:00 13.1 6 Norte 16 Norte 0 -- -- 37
2019-02-04 13:00:00 11 5 Nordeste 10 Norte 0 -- -- 39
2019-02-04 12:00:00 9.1 7 Nordeste 13 Nordeste 0 -- -- 42
2019-02-04 11:00:00 5.9 8 Nordeste 18 Nordeste 0 -- -- 61
2019-02-04 10:00:00 1.7 2 Nordeste 6 Sudeste 0 -- -- 80
2019-02-04 09:00:00 -2.3 3 Sudoeste 6 Sudoeste 0 -- -- 90
2019-02-04 08:00:00 -3 5 Sudoeste 9 Sudoeste 0 -- -- 92
2019-02-04 07:00:00 -2.9 6 Sudoeste 11 Oeste 0 -- -- 92
2019-02-04 06:00:00 -2.9 6 Sudoeste 8 Sudoeste 0 -- -- 92
2019-02-04 05:00:00 -2.6 5 Sudoeste 11 Sudoeste 0 -- -- 91
2019-02-04 04:00:00 -1.9 4 Sudoeste 6 Sudoeste 0 -- -- 90
2019-02-04 03:00:00 -1.5 4 Oeste 10 Sudoeste 0 -- -- 88
2019-02-04 02:00:00 -1.4 8 Sudoeste 10 Sudoeste 0 -- -- 89
2019-02-04 01:00:00 -0.8 6 Sudoeste 9 Sudoeste 0 -- -- 87
2019-02-04 00:00:00 -0.2 4 Sudoeste 11 Sudoeste 0 -- -- 84
2019-02-03 23:00:00 0.5 8 Sudoeste 10 Sudoeste 0 -- -- 82
2019-02-03 22:00:00 1.6 5 Sudoeste 8 Sudoeste 0 -- -- 76
2019-02-03 21:00:00 3.6 2 Noroeste 6 Sudoeste 0 -- -- 64
2019-02-03 20:00:00 5.1 3 Nordeste 11 Nordeste 0 -- -- 55
2019-02-03 19:00:00 6.2 9 Nordeste 18 Norte 0 -- -- 52
2019-02-03 18:00:00 8.2 14 Norte 31 Norte 0 -- -- 45
2019-02-03 17:00:00 8.8 15 Norte 31 Norte 0 -- -- 43
2019-02-03 16:00:00 8.9 17 Norte 35 Norte 0 -- -- 38
2019-02-03 15:00:00 9 23 Norte 36 Norte 0 -- -- 38
2019-02-03 14:00:00 8.6 20 Norte 38 Norte 0 -- -- 41
2019-02-03 13:00:00 7.6 24 Norte 37 Norte 0 -- -- 46
2019-02-03 12:00:00 6.7 11 Nordeste 16 Nordeste 0 -- -- 59
2019-02-03 11:00:00 5.8 10 Nordeste 14 Nordeste 0 -- -- 61
2019-02-03 10:00:00 1.9 2 Sudoeste 5 Sudoeste 0 -- -- 82
2019-02-03 09:00:00 -1.1 3 Nordeste 9 Norte 0 -- -- 88
2019-02-03 08:00:00 -0.7 0 Calma 7 Nordeste 0 -- -- 84
2019-02-03 07:00:00 0.1 3 Norte 12 Noroeste 0 -- -- 80
2019-02-03 06:00:00 0.8 0 Calma 13 Nordeste 0 -- -- 76
2019-02-03 05:00:00 2.7 3 Nordeste 14 Nordeste 0 -- -- 66
2019-02-03 04:00:00 2.9 4 Nordeste 24 Norte 0 -- -- 66
2019-02-03 03:00:00 4.6 9 Norte 31 Oeste 0 -- -- 57
2019-02-03 02:00:00 5 12 Norte 36 Noroeste 0 -- -- 57
2019-02-03 01:00:00 5.6 11 Noroeste 45 Norte 0 -- -- 56
2019-02-03 00:00:00 5.8 18 Noroeste 51 Norte 0 -- -- 55
2019-02-02 23:00:00 6.1 13 Noroeste 57 Oeste 0 -- -- 54
2019-02-02 22:00:00 6.5 21 Noroeste 54 Oeste 0 -- -- 56
2019-02-02 21:00:00 7 30 Oeste 53 Oeste 0 -- -- 56
2019-02-02 20:00:00 7.2 27 Noroeste 42 Oeste 0 -- -- 55
2019-02-02 19:00:00 7.1 10 Noroeste 43 Noroeste 0 -- -- 59
2019-02-02 18:00:00 8.3 14 Noroeste 43 Noroeste 0 -- -- 57
2019-02-02 17:00:00 8.5 24 Noroeste 45 Noroeste 0 -- -- 54
2019-02-02 16:00:00 8.6 21 Noroeste 46 Oeste 0 -- -- 55
2019-02-02 15:00:00 7.9 20 Oeste 34 Oeste 0 -- -- 59
2019-02-02 14:00:00 6.9 13 Oeste 31 Oeste 0 -- -- 67
2019-02-02 13:00:00 6 14 Noroeste 28 Oeste 0 -- -- 67
2019-02-02 12:00:00 5.7 14 Oeste 46 Noroeste 0 -- -- 68
2019-02-02 11:00:00 5.5 21 Noroeste 46 Noroeste 0 -- -- 69
2019-02-02 10:00:00 5.5 19 Noroeste 37 Noroeste 0 -- -- 70
2019-02-02 09:00:00 5.5 14 Oeste 37 Oeste 0.2 -- -- 73
2019-02-02 08:00:00 5.4 17 Oeste 34 Sudoeste 0 -- -- 78
2019-02-02 07:00:00 5.7 7 Oeste 33 Oeste 0 -- -- 79
2019-02-02 06:00:00 5.9 20 Oeste 38 Oeste 0.2 -- -- 79
2019-02-02 05:00:00 5.6 19 Oeste 41 Oeste 0 -- -- 86
2019-02-02 04:00:00 5.3 24 Sudoeste 43 Sudoeste 0 -- -- 86
2019-02-02 03:00:00 5.1 23 Sudoeste 46 Sudoeste 0 -- -- 87
2019-02-02 02:00:00 4.5 27 Sudoeste 47 Sudoeste 0 -- -- 88
2019-02-02 01:00:00 4.7 28 Sudoeste 53 Sudoeste 0 -- -- 86
2019-02-02 00:00:00 5.7 27 Sudoeste 45 Sudoeste 0 -- -- 83
2019-02-01 23:00:00 6.1 24 Sudoeste 48 Sudoeste 0 -- -- 84
2019-02-01 22:00:00 6 18 Sudoeste 44 Oeste 0 -- -- 85
2019-02-01 21:00:00 6.1 22 Sudoeste 44 Sudoeste 0 -- -- 80
2019-02-01 20:00:00 6.8 23 Oeste 63 Oeste 0.4 -- -- 75
2019-02-01 19:00:00 7.9 35 Sudoeste 66 Sudoeste 0.4 -- -- 87
2019-02-01 18:00:00 8.8 35 Sudoeste 63 Sudoeste 0 -- -- 78
2019-02-01 17:00:00 9.4 31 Sudoeste 58 Sudoeste 0 -- -- 73
2019-02-01 16:00:00 8.8 28 Sudoeste 55 Sudoeste 0.2 -- -- 81
2019-02-01 15:00:00 8.4 19 Sudoeste 45 Oeste 2.2 -- -- 84
2019-02-01 14:00:00 10 22 Sudoeste 48 Sudoeste 0 -- -- 78
2019-02-01 13:00:00 8.6 20 Oeste 42 Oeste 1.2 -- -- 89
2019-02-01 12:00:00 8.4 13 Sudoeste 38 Oeste 0.8 -- -- 94
2019-02-01 11:00:00 9.1 22 Sudoeste 49 Sudoeste 0 -- -- 85
2019-02-01 10:00:00 8.4 18 Sudoeste 53 Oeste 0.2 -- -- 89
2019-02-01 09:00:00 10.7 27 Oeste 48 Sudoeste 1.6 -- -- 92
2019-02-01 08:00:00 10.9 29 Sudoeste 60 Sudoeste 7 -- -- 97
2019-02-01 07:00:00 11.1 37 Sudoeste 58 Sudoeste 8.2 -- -- 97
2019-02-01 06:00:00 10.8 29 Sudoeste 47 Sudoeste 6 -- -- 97
2019-02-01 05:00:00 10.2 22 Sudoeste 44 Sudoeste 4.6 -- -- 97
2019-02-01 04:00:00 10.3 27 Sudoeste 42 Sur 2.4 -- -- 97
2019-02-01 03:00:00 10.4 22 Sudoeste 50 Sudoeste 0.8 -- -- 96
2019-02-01 02:00:00 10.2 33 Sudoeste 48 Sudoeste 0.8 -- -- 96
2019-02-01 01:00:00 10.6 21 Sudoeste 39 Sudoeste 0.2 -- -- 92
2019-02-01 00:00:00 10.1 17 Sudoeste 39 Sudoeste 0.4 -- -- 95
2019-01-31 23:00:00 10.1 27 Sur 46 Sur 0.2 -- -- 94
2019-01-31 22:00:00 9.8 26 Sudoeste 44 Sudoeste 0.6 -- -- 96
2019-01-31 21:00:00 9.9 27 Sudoeste 47 Sudoeste 0.4 -- -- 95
2019-01-31 20:00:00 10.2 28 Sudoeste 41 Sudoeste 0.2 -- -- 94
2019-01-31 19:00:00 10.6 24 Sudoeste 37 Sudoeste 0 -- -- 92
2019-01-31 18:00:00 11.5 17 Sudoeste 45 Oeste 0 -- -- 83
2019-01-31 17:00:00 12.7 29 Sudoeste 53 Sudoeste 0 -- -- 78
2019-01-31 16:00:00 12.4 25 Sudoeste 46 Sudoeste 0 -- -- 82
2019-01-31 15:00:00 12.1 24 Sudoeste 41 Sudoeste 0 -- -- 88
2019-01-31 14:00:00 11.4 28 Sudoeste 54 Sudoeste 0.4 -- -- 92
2019-01-31 13:00:00 11.1 22 Sudoeste 45 Sudoeste 0.2 -- -- 96
2019-01-31 12:00:00 10.7 18 Sudoeste 35 Sudoeste 1 -- -- 97
2019-01-31 11:00:00 10.2 22 Sudoeste 45 Oeste 1.4 -- -- 97
2019-01-31 10:00:00 10.2 27 Sudoeste 44 Sudoeste 0.8 -- -- 98
2019-01-31 09:00:00 10 17 Sudoeste 25 Sudoeste 1.2 -- -- 98
2019-01-31 08:00:00 9.9 19 Sudoeste 35 Sudoeste 0.6 -- -- 98
2019-01-31 07:00:00 9.8 25 Sudoeste 43 Sudoeste 0.2 -- -- 97
2019-01-31 06:00:00 9.6 26 Sudoeste 42 Sudoeste 0.2 -- -- 97
2019-01-31 05:00:00 9.4 25 Sudoeste 44 Sudoeste 1 -- -- 96
2019-01-31 04:00:00 9.4 25 Sudoeste 49 Sudoeste 1.2 -- -- 94
2019-01-31 03:00:00 9.3 28 Sudoeste 43 Sudoeste 0.8 -- -- 95
2019-01-31 02:00:00 9.2 19 Sudoeste 25 Sudoeste 0.8 -- -- 96
2019-01-31 01:00:00 8.9 13 Sudoeste 28 Sudoeste 0.4 -- -- 96
2019-01-31 00:00:00 8.3 12 Sudoeste 18 Sudoeste 1.2 -- -- 96
2019-01-30 23:00:00 7.8 8 Sur 18 Sur 0.4 -- -- 96
2019-01-30 22:00:00 7.3 17 Sur 26 Sudoeste 0.4 -- -- 95
2019-01-30 21:00:00 7.2 19 Sudoeste 33 Sudoeste 0.6 -- -- 93
2019-01-30 20:00:00 7.9 22 Sudoeste 32 Sudoeste 0 -- -- 91
2019-01-30 19:00:00 9.2 21 Sudoeste 31 Sudoeste 0 -- -- 85
2019-01-30 18:00:00 10.7 8 Sudoeste 26 Sudoeste 0 -- -- 67
2019-01-30 17:00:00 10.8 16 Sudoeste 27 Sudoeste 0 -- -- 64
2019-01-30 16:00:00 11.3 20 Sudoeste 39 Sudoeste 0 -- -- 60
2019-01-30 15:00:00 11.3 18 Sudoeste 27 Sudoeste 0 -- -- 59
2019-01-30 14:00:00 10.7 10 Oeste 25 Oeste 0 -- -- 60
2019-01-30 13:00:00 10.2 13 Noroeste 31 Noroeste 0 -- -- 62
2019-01-30 12:00:00 9.4 19 Noroeste 39 Noroeste 0 -- -- 62
2019-01-30 11:00:00 8.7 5 Oeste 37 Oeste 0 -- -- 71
2019-01-30 10:00:00 7.9 22 Oeste 39 Oeste 0 -- -- 70
2019-01-30 09:00:00 8 14 Oeste 28 Sudoeste 0 -- -- 72
2019-01-30 08:00:00 8.3 15 Sudoeste 22 Sudoeste 0 -- -- 81
2019-01-30 07:00:00 8.5 12 Sur 20 Sur 0 -- -- 83
2019-01-30 06:00:00 8.4 12 Sudoeste 24 Sudoeste 0 -- -- 88
2019-01-30 05:00:00 8.3 14 Sudoeste 28 Sudoeste 0 -- -- 90
2019-01-30 04:00:00 8.4 19 Sudoeste 35 Sudoeste 0 -- -- 90
2019-01-30 03:00:00 8.4 20 Sudoeste 31 Sudoeste 0 -- -- 90
2019-01-30 02:00:00 8.8 19 Sudoeste 30 Sudoeste 0 -- -- 88
2019-01-30 01:00:00 9.2 23 Sudoeste 32 Sudoeste 0 -- -- 86
2019-01-30 00:00:00 9.3 17 Sudoeste 30 Sudoeste 0 -- -- 85
2019-01-29 23:00:00 9.8 14 Sudoeste 31 Sudoeste 0 -- -- 81
2019-01-29 22:00:00 9.9 12 Sudoeste 30 Sudoeste 0 -- -- 79
2019-01-29 21:00:00 9.9 14 Sudoeste 22 Sudoeste 0 -- -- 78
2019-01-29 20:00:00 9.8 15 Sudoeste 24 Sudoeste 0 -- -- 81
2019-01-29 19:00:00 9.6 15 Sudoeste 24 Sudoeste 0 -- -- 81
2019-01-29 18:00:00 9.9 18 Sudoeste 26 Sudoeste 0 -- -- 79
2019-01-29 17:00:00 9.6 15 Sudoeste 26 Sudoeste 0 -- -- 78
2019-01-29 16:00:00 9.6 21 Sudoeste 31 Sudoeste 0 -- -- 77
2019-01-29 15:00:00 9.9 21 Sudoeste 34 Sudoeste 0 -- -- 75
2019-01-29 14:00:00 10.4 27 Sudoeste 40 Sudoeste 0 -- -- 71
2019-01-29 13:00:00 9.9 22 Sudoeste 35 Sudoeste 0 -- -- 75
2019-01-29 12:00:00 10.3 22 Sudoeste 33 Sudoeste 0 -- -- 73
2019-01-29 11:00:00 9 18 Sudoeste 29 Sudoeste 0 -- -- 80
2019-01-29 10:00:00 7.8 17 Sudoeste 25 Sudoeste 0 -- -- 85
2019-01-29 09:00:00 6.2 9 Sudoeste 17 Sudoeste 0 -- -- 94
2019-01-29 08:00:00 6.5 9 Sudoeste 15 Sudoeste 0 -- -- 91
2019-01-29 07:00:00 7.1 12 Sudoeste 23 Sudoeste 0 -- -- 93
2019-01-29 06:00:00 7.1 15 Sudoeste 22 Sudoeste 0 -- -- 92
2019-01-29 05:00:00 7.5 12 Sudoeste 22 Sudoeste 0 -- -- 89
2019-01-29 04:00:00 8.1 17 Sudoeste 25 Sudoeste 0 -- -- 85
2019-01-29 03:00:00 8.7 12 Sudoeste 17 Sudoeste 0 -- -- 81
2019-01-29 02:00:00 9.7 6 Oeste 17 Nordeste 0 -- -- 74
2019-01-29 01:00:00 9.9 8 Oeste 20 Oeste 0 -- -- 73
2019-01-29 00:00:00 10.2 6 Oeste 28 Oeste 0 -- -- 71
2019-01-28 23:00:00 10.2 18 Oeste 41 Oeste 0 -- -- 71
2019-01-28 22:00:00 9.9 12 Sudoeste 28 Sudoeste 0 -- -- 74
2019-01-28 21:00:00 10 13 Sudoeste 23 Sur 0 -- -- 73
2019-01-28 20:00:00 9.7 13 Sudoeste 26 Sudoeste 0 -- -- 73
2019-01-28 19:00:00 9.9 19 Sudoeste 34 Sudoeste 0 -- -- 70
2019-01-28 18:00:00 10.1 13 Sudoeste 26 Sudoeste 0 -- -- 69
2019-01-28 17:00:00 11.4 16 Sudoeste 28 Sudoeste 0 -- -- 63
2019-01-28 16:00:00 10.5 23 Sudoeste 33 Sudoeste 0 -- -- 63
2019-01-28 15:00:00 12.2 18 Sudoeste 32 Noroeste 0 -- -- 56
2019-01-28 14:00:00 11.7 4 Oeste 24 Sudoeste 0 -- -- 56
2019-01-28 13:00:00 10.3 19 Sudoeste 28 Sudoeste 0 -- -- 60
2019-01-28 12:00:00 10.2 8 Sudoeste 14 Sudoeste 0 -- -- 60
2019-01-28 11:00:00 8.1 4 Sur 8 Sur 0 -- -- 71
2019-01-28 10:00:00 3.5 4 Sudoeste 8 Sudoeste 0 -- -- 85
2019-01-28 09:00:00 0.4 4 Sudoeste 8 Noroeste 0 -- -- 90
2019-01-28 08:00:00 1 2 Sudeste 14 Oeste 0 -- -- 90
2019-01-28 07:00:00 1.7 5 Noroeste 9 Noroeste 0 -- -- 86
2019-01-28 06:00:00 3 6 Sur 10 Sur 0 -- -- 82
2019-01-28 05:00:00 3.7 6 Sudoeste 13 Sudoeste 0 -- -- 79
2019-01-28 04:00:00 3.2 9 Sudoeste 16 Sudoeste 0 -- -- 83
2019-01-28 03:00:00 3.7 8 Sudoeste 12 Sudoeste 0 -- -- 80
2019-01-28 02:00:00 4 4 Sudoeste 15 Noroeste 0 -- -- 79
2019-01-28 01:00:00 4.7 5 Sudeste 14 Noroeste 0 -- -- 76
2019-01-28 00:00:00 5.3 2 Sudeste 10 Sudoeste 0 -- -- 73
2019-01-27 23:00:00 6 4 Sur 15 Norte 0 -- -- 72
2019-01-27 22:00:00 7 2 Sudoeste 16 Norte 0 -- -- 70
2019-01-27 21:00:00 7.6 2 Oeste 8 Oeste 0 -- -- 69
2019-01-27 20:00:00 8.5 5 Este 21 Nordeste 0 -- -- 67
2019-01-27 19:00:00 10.3 5 Norte 32 Oeste 0 -- -- 65
2019-01-27 18:00:00 10.5 10 Oeste 29 Oeste 0 -- -- 68
2019-01-27 17:00:00 10.6 15 Noroeste 29 Noroeste 0 -- -- 67
2019-01-27 16:00:00 10.7 11 Noroeste 39 Noroeste 0 -- -- 65
2019-01-27 15:00:00 12 21 Oeste 33 Oeste 0 -- -- 60
2019-01-27 14:00:00 14 14 Sudoeste 29 Sudoeste 0 -- -- 57
2019-01-27 13:00:00 12.8 22 Sudoeste 39 Sudoeste 0 -- -- 63
2019-01-27 12:00:00 12.2 22 Sudoeste 37 Sudoeste 0 -- -- 67
2019-01-27 11:00:00 10.2 15 Sudoeste 29 Oeste 0 -- -- 76
2019-01-27 10:00:00 7.8 8 Sudoeste 16 Sudoeste 0 -- -- 92
2019-01-27 09:00:00 7.1 4 Sudoeste 16 Sudoeste 0 -- -- 95
2019-01-27 08:00:00 6.4 8 Sudoeste 10 Sudoeste 0 -- -- 94
2019-01-27 07:00:00 5.6 3 Nordeste 8 Norte 0 -- -- 93
2019-01-27 06:00:00 5.4 0 Calma 8 Norte 0 -- -- 93
2019-01-27 05:00:00 5.5 3 Este 11 Sur 0 -- -- 90
2019-01-27 04:00:00 6.7 7 Sur 16 Sur 0 -- -- 89
2019-01-27 03:00:00 6.6 10 Sudoeste 14 Sudoeste 0 -- -- 81
2019-01-27 02:00:00 7.4 4 Sudoeste 12 Sudoeste 0 -- -- 83
2019-01-27 01:00:00 7.4 8 Sur 12 Sur 0 -- -- 79
2019-01-27 00:00:00 8.3 8 Sur 10 Sur 0 -- -- 74
2019-01-26 23:00:00 8.3 8 Sur 12 Sur 0 -- -- 75
2019-01-26 22:00:00 8.1 9 Sudoeste 12 Sudoeste 0 -- -- 77
2019-01-26 21:00:00 9.2 6 Sudoeste 9 Sudoeste 0 -- -- 72
2019-01-26 20:00:00 11 5 Sudoeste 10 Oeste 0 -- -- 64
2019-01-26 19:00:00 12.9 6 Nordeste 14 Nordeste 0 -- -- 56
2019-01-26 18:00:00 15.2 10 Nordeste 17 Nordeste 0 -- -- 51
2019-01-26 17:00:00 16.6 12 Nordeste 18 Nordeste 0 -- -- 48
2019-01-26 16:00:00 17.2 12 Nordeste 18 Nordeste 0 -- -- 45
2019-01-26 15:00:00 17.2 12 Nordeste 20 Nordeste 0 -- -- 43
2019-01-26 14:00:00 17.4 10 Nordeste 15 Nordeste 0 -- -- 43
2019-01-26 13:00:00 15.4 4 Norte 7 Norte 0 -- -- 46
2019-01-26 12:00:00 13.8 3 Sudoeste 8 Sudoeste 0 -- -- 54
2019-01-26 11:00:00 9.2 6 Sudoeste 10 Sudoeste 0 -- -- 73
2019-01-26 10:00:00 5.9 0 Calma 10 Sudoeste 0 -- -- 84
2019-01-26 09:00:00 1.7 9 Sudoeste 12 Sudoeste 0 -- -- 94
2019-01-26 08:00:00 2 4 Sudoeste 8 Sudoeste 0 -- -- 93
2019-01-26 07:00:00 1.7 6 Sudoeste 9 Sudoeste 0 -- -- 92
2019-01-26 06:00:00 2.5 4 Sudoeste 7 Sudoeste 0 -- -- 92
2019-01-26 05:00:00 3.7 3 Sudoeste 8 Sudoeste 0 -- -- 91
2019-01-26 04:00:00 3.5 2 Sur 10 Sudoeste 0 -- -- 92
2019-01-26 03:00:00 4.2 4 Sudoeste 8 Sudoeste 0 -- -- 91
2019-01-26 02:00:00 5 0 Calma 8 Sudoeste 0 -- -- 89
2019-01-26 01:00:00 5.5 4 Oeste 7 Sudoeste 0 -- -- 85
2019-01-26 00:00:00 5.9 0 Calma 7 Sudoeste 0 -- -- 87
2019-01-25 23:00:00 6.6 4 Sudoeste 13 Sudoeste 0 -- -- 83
2019-01-25 22:00:00 8.6 2 Sudoeste 6 Sudoeste 0 -- -- 76
2019-01-25 21:00:00 10.1 4 Norte 12 Nordeste 0 -- -- 70
2019-01-25 20:00:00 11.3 13 Nordeste 18 Norte 0 -- -- 65
2019-01-25 19:00:00 12.3 11 Nordeste 23 Norte 0 -- -- 63
2019-01-25 18:00:00 14.1 17 Norte 31 Norte 0 -- -- 56
2019-01-25 17:00:00 15.3 17 Norte 31 Norte 0 -- -- 51
2019-01-25 16:00:00 15.9 19 Norte 32 Norte 0 -- -- 51
2019-01-25 15:00:00 16.5 11 Nordeste 22 Norte 0 -- -- 48
2019-01-25 14:00:00 15.4 15 Norte 24 Nordeste 0 -- -- 55
2019-01-25 13:00:00 14.4 3 Norte 14 Nordeste 0 -- -- 64
2019-01-25 12:00:00 12.5 10 Nordeste 14 Norte 0 -- -- 78
2019-01-25 11:00:00 8.6 8 Norte 11 Nordeste 0 -- -- 92
2019-01-25 10:00:00 6.3 3 Norte 6 Sudoeste 0 -- -- 99
2019-01-25 09:00:00 3.5 3 Sudoeste 6 Sudoeste 0.2 -- -- 98
2019-01-25 08:00:00 4.1 4 Sudoeste 8 Sudoeste 0 -- -- 98
2019-01-25 07:00:00 3.5 8 Sudoeste 9 Sudoeste 0 -- -- 97
2019-01-25 06:00:00 3.3 6 Sudoeste 8 Sudoeste 0 -- -- 96
2019-01-25 05:00:00 3.6 6 Sudoeste 10 Sudoeste 0 -- -- 98
2019-01-25 04:00:00 4.6 0 Calma 8 Sudoeste 0 -- -- 96
2019-01-25 03:00:00 3.9 4 Sudoeste 8 Sudoeste 0 -- -- 95
2019-01-25 02:00:00 5.3 3 Norte 9 Sudoeste 0 -- -- 97
2019-01-25 01:00:00 4.8 9 Sudoeste 13 Sudoeste 0 -- -- 96
2019-01-25 00:00:00 5.3 7 Sudoeste 9 Sudoeste 0 -- -- 94
2019-01-24 23:00:00 5.6 5 Sudoeste 8 Sudoeste 0 -- -- 93
2019-01-24 22:00:00 6.2 6 Sudoeste 13 Sudoeste 0 -- -- 92
2019-01-24 21:00:00 7.2 10 Sudoeste 13 Sudoeste 0 -- -- 90
2019-01-24 20:00:00 9 9 Oeste 10 Oeste 0 -- -- 84
2019-01-24 19:00:00 11 0 Calma 5 Nordeste 0 -- -- 75
2019-01-24 18:00:00 12.4 3 Nordeste 10 Oeste 0 -- -- 71
2019-01-24 17:00:00 15.1 5 Sudoeste 9 Sudoeste 0 -- -- 64
2019-01-24 16:00:00 13.2 4 Oeste 13 Sudoeste 0 -- -- 71
2019-01-24 15:00:00 13.2 12 Sudoeste 20 Sudoeste 0 -- -- 71
2019-01-24 14:00:00 11.1 10 Sudoeste 20 Sudoeste 0 -- -- 80
2019-01-24 13:00:00 10.4 16 Sudoeste 22 Sudoeste 0 -- -- 82
2019-01-24 12:00:00 9.9 12 Sudoeste 16 Sudoeste 0 -- -- 84
2019-01-24 11:00:00 9.5 4 Sudoeste 17 Oeste 0 -- -- 83
2019-01-24 10:00:00 9 3 Sudoeste 17 Sudoeste 0 -- -- 87
2019-01-24 09:00:00 8.6 8 Sudoeste 15 Sudoeste 0 -- -- 91
2019-01-24 08:00:00 8.7 11 Sudoeste 18 Sudoeste 0 -- -- 90
2019-01-24 07:00:00 8.9 8 Sudoeste 20 Sudoeste 0 -- -- 89
2019-01-24 06:00:00 8.8 12 Sudoeste 23 Sudoeste 0 -- -- 90
2019-01-24 05:00:00 8.9 14 Sudoeste 23 Sudoeste 0 -- -- 89
2019-01-24 04:00:00 8.9 11 Sudoeste 20 Sudoeste 0 -- -- 89
2019-01-24 03:00:00 8.8 11 Sudoeste 22 Sudoeste 0 -- -- 88
2019-01-24 02:00:00 8.9 14 Sudoeste 28 Sudoeste 0 -- -- 87
2019-01-24 01:00:00 9.1 17 Sudoeste 31 Sudoeste 0 -- -- 85
2019-01-24 00:00:00 9 16 Sudoeste 32 Sudoeste 0 -- -- 84
2019-01-23 23:00:00 9 20 Sudoeste 29 Sudoeste 0 -- -- 84
2019-01-23 22:00:00 9.3 11 Sur 20 Sudoeste 0 -- -- 81
2019-01-23 21:00:00 10.4 7 Sudoeste 31 Oeste 0 -- -- 77
2019-01-23 20:00:00 11.2 14 Oeste 31 Noroeste 0 -- -- 72
2019-01-23 19:00:00 11 13 Oeste 32 Sudoeste 0 -- -- 72
2019-01-23 18:00:00 10.9 11 Sudoeste 30 Sudoeste 0 -- -- 72
2019-01-23 17:00:00 10.7 8 Sudoeste 42 Norte 0 -- -- 73
2019-01-23 16:00:00 10.8 12 Oeste 31 Oeste 0 -- -- 72
2019-01-23 15:00:00 10 11 Sudoeste 21 Sudoeste 0 -- -- 78
2019-01-23 14:00:00 9 18 Sudoeste 28 Sudoeste 0 -- -- 81
2019-01-23 13:00:00 8.8 14 Sudoeste 28 Sudoeste 0 -- -- 81
2019-01-23 12:00:00 7.9 16 Sudoeste 32 Sudoeste 0 -- -- 84
2019-01-23 11:00:00 7.3 21 Sudoeste 35 Sudoeste 0 -- -- 85
2019-01-23 10:00:00 6.9 14 Sudoeste 22 Sudoeste 0 -- -- 85
2019-01-23 09:00:00 6.4 10 Sudoeste 27 Sudoeste 0 -- -- 86
2019-01-23 08:00:00 6.1 9 Sudoeste 26 Sudoeste 0 -- -- 87
2019-01-23 07:00:00 6.3 15 Sudoeste 27 Sudoeste 0 -- -- 84
2019-01-23 06:00:00 6.2 13 Sudoeste 26 Sur 0 -- -- 83
2019-01-23 05:00:00 6.5 12 Sudoeste 26 Sudoeste 0 -- -- 86
2019-01-23 04:00:00 7.1 12 Sudoeste 26 Oeste 0 -- -- 87
2019-01-23 03:00:00 7.6 13 Oeste 35 Oeste 0 -- -- 84
2019-01-23 02:00:00 7.6 20 Oeste 36 Oeste 0 -- -- 85
2019-01-23 01:00:00 7.1 10 Sur 30 Sudoeste 0 -- -- 88
2019-01-23 00:00:00 7.3 16 Sudoeste 30 Sudoeste 0 -- -- 85
2019-01-22 23:00:00 6.5 14 Sudoeste 35 Sudoeste 0 -- -- 90
2019-01-22 22:00:00 6.8 20 Sudoeste 28 Sudoeste 0 -- -- 86
2019-01-22 21:00:00 6.3 15 Sudoeste 22 Sudoeste 0.4 -- -- 88
2019-01-22 20:00:00 6.8 12 Sur 22 Sur 0 -- -- 82
2019-01-22 19:00:00 7 12 Sur 23 Sudoeste 0 -- -- 76
2019-01-22 18:00:00 7.4 6 Sudoeste 27 Noroeste 0 -- -- 73
2019-01-22 17:00:00 7.6 11 Noroeste 33 Noroeste 0 -- -- 66
2019-01-22 16:00:00 8.6 14 Oeste 31 Oeste 0 -- -- 62
2019-01-22 15:00:00 9.8 17 Sudoeste 24 Sudoeste 0 -- -- 58
2019-01-22 14:00:00 9.2 15 Sudoeste 23 Oeste 0 -- -- 58
2019-01-22 13:00:00 8.9 11 Sudoeste 19 Sudoeste 0 -- -- 63
2019-01-22 12:00:00 8 13 Sudoeste 19 Sudoeste 0 -- -- 65
2019-01-22 11:00:00 6 5 Sudoeste 17 Sur 0 -- -- 78
2019-01-22 10:00:00 1.2 3 Norte 15 Sudoeste 0.2 -- -- 91
2019-01-22 09:00:00 -0.3 12 Sudoeste 14 Sur 0 -- -- 95
2019-01-22 08:00:00 -1.3 9 Sudoeste 14 Sudoeste 0 -- -- 96
2019-01-22 07:00:00 -1.4 7 Sudoeste 11 Sudoeste 0 -- -- 95
2019-01-22 06:00:00 -1.3 9 Sudoeste 10 Sudoeste 0 -- -- 95
2019-01-22 05:00:00 -0.9 7 Sudoeste 9 Sudoeste 0 -- -- 94
2019-01-22 04:00:00 -0.2 4 Sudoeste 8 Sudoeste 0 -- -- 94
2019-01-22 03:00:00 0 5 Sudoeste 9 Sudoeste 0 -- -- 93
2019-01-22 02:00:00 0.6 8 Sudoeste 10 Sudoeste 0 -- -- 92
2019-01-22 01:00:00 0.9 7 Sudoeste 11 Sudoeste 0 -- -- 91
2019-01-22 00:00:00 1.7 6 Sudoeste 8 Sudoeste 0 -- -- 89
2019-01-21 23:00:00 2.3 5 Sudoeste 9 Sudoeste 0 -- -- 88
2019-01-21 22:00:00 2.8 7 Sudoeste 10 Sudoeste 0 -- -- 85
2019-01-21 21:00:00 3.5 8 Sudoeste 10 Sudoeste 0 -- -- 84
2019-01-21 20:00:00 5.6 8 Sudoeste 9 Sudoeste 0 -- -- 73
2019-01-21 19:00:00 7.3 4 Nordeste 10 Norte 0 -- -- 64
2019-01-21 18:00:00 8.9 10 Norte 23 Norte 0 -- -- 59
2019-01-21 17:00:00 9.9 13 Norte 27 Nordeste 0 -- -- 54
2019-01-21 16:00:00 10.1 17 Norte 28 Nordeste 0 -- -- 54
2019-01-21 15:00:00 9.9 19 Norte 28 Norte 0 -- -- 56
2019-01-21 14:00:00 9.7 14 Norte 28 Norte 0 -- -- 59
2019-01-21 13:00:00 9.5 16 Norte 26 Norte 0 -- -- 58
2019-01-21 12:00:00 9.3 9 Nordeste 13 Nordeste 0 -- -- 66
2019-01-21 11:00:00 6.2 3 Nordeste 7 Sudoeste 0 -- -- 80
2019-01-21 10:00:00 2 4 Sudoeste 9 Sudoeste 0 -- -- 97
2019-01-21 09:00:00 -0.5 8 Sudoeste 10 Sudoeste 0 -- -- 96
2019-01-21 08:00:00 -0.6 9 Sudoeste 10 Sudoeste 0 -- -- 95
2019-01-21 07:00:00 0 3 Sudoeste 5 Sudoeste 0 -- -- 95
2019-01-21 06:00:00 0.5 4 Sudoeste 6 Sudoeste 0 -- -- 94
2019-01-21 05:00:00 0.9 5 Noroeste 7 Sudoeste 0 -- -- 94
2019-01-21 04:00:00 1.9 3 Oeste 6 Sudoeste 0 -- -- 93
2019-01-21 03:00:00 2 5 Sudoeste 6 Sudoeste 0 -- -- 91
2019-01-21 02:00:00 2.8 4 Sudoeste 11 Sudoeste 0 -- -- 89
2019-01-21 01:00:00 4 7 Sudoeste 8 Sudoeste 0 -- -- 86
2019-01-21 00:00:00 6 0 Calma 6 Nordeste 0 -- -- 78
2019-01-20 23:00:00 6.9 6 Nordeste 13 Nordeste 0 -- -- 73
2019-01-20 22:00:00 7.8 8 Nordeste 12 Nordeste 0 -- -- 74
2019-01-20 21:00:00 8.4 6 Nordeste 11 Norte 0 -- -- 74
2019-01-20 20:00:00 9 5 Nordeste 17 Noroeste 0 -- -- 72
2019-01-20 19:00:00 9 4 Oeste 11 Norte 0 -- -- 73
2019-01-20 18:00:00 9.6 3 Nordeste 14 Norte 0 -- -- 72
2019-01-20 17:00:00 10.3 12 Norte 32 Nordeste 0 -- -- 70
2019-01-20 16:00:00 10.1 18 Norte 35 Norte 0 -- -- 71
2019-01-20 15:00:00 9.6 17 Norte 35 Nordeste 0 -- -- 86
2019-01-20 14:00:00 9.4 14 Norte 35 Norte 0.4 -- -- 88
2019-01-20 13:00:00 9.4 16 Noroeste 44 Noroeste 0.6 -- -- 90
2019-01-20 12:00:00 10.2 22 Noroeste 46 Oeste 0.2 -- -- 82
2019-01-20 11:00:00 9.9 12 Oeste 33 Noroeste 0 -- -- 90
2019-01-20 10:00:00 9.2 8 Noroeste 28 Noroeste 0.4 -- -- 96
2019-01-20 09:00:00 9.1 8 Sudoeste 20 Sudoeste 1.2 -- -- 96
2019-01-20 08:00:00 9.1 16 Sudoeste 31 Sudoeste 1.2 -- -- 96
2019-01-20 07:00:00 9 17 Sudoeste 30 Sudoeste 0.4 -- -- 96
2019-01-20 06:00:00 8.9 14 Sudoeste 27 Sudoeste 0.2 -- -- 96
2019-01-20 05:00:00 9.1 12 Sudoeste 30 Sudoeste 0.2 -- -- 96
2019-01-20 04:00:00 9.1 24 Sudoeste 35 Sudoeste 0 -- -- 97
2019-01-20 03:00:00 8.8 14 Sudoeste 20 Sudoeste 0.6 -- -- 97
2019-01-20 02:00:00 8.7 12 Sudoeste 16 Sudoeste 2.4 -- -- 97
2019-01-20 01:00:00 8.8 9 Sudoeste 24 Sudoeste 2.2 -- -- 96
2019-01-20 00:00:00 8.7 15 Sudoeste 27 Sudoeste 2.8 -- -- 96
2019-01-19 23:00:00 8 6 Sudeste 12 Sudoeste 2.2 -- -- 96
2019-01-19 22:00:00 7.6 8 Sur 17 Sudoeste 0.2 -- -- 96
2019-01-19 21:00:00 7.5 12 Sudoeste 18 Sudoeste 0.4 -- -- 95
2019-01-19 20:00:00 7.6 13 Sudoeste 18 Sudoeste 0 -- -- 92
2019-01-19 19:00:00 7.8 10 Sur 19 Sudoeste 0 -- -- 91
2019-01-19 18:00:00 8.4 13 Sudoeste 22 Oeste 0 -- -- 86
2019-01-19 17:00:00 8.8 2 Oeste 13 Este 0.2 -- -- 89
2019-01-19 16:00:00 8.8 8 Nordeste 14 Nordeste 0.2 -- -- 84
2019-01-19 15:00:00 9.9 7 Nordeste 14 Nordeste 0 -- -- 72
2019-01-19 14:00:00 11.2 4 Nordeste 13 Oeste 0 -- -- 66
2019-01-19 13:00:00 11.2 3 Oeste 9 Sudoeste 0 -- -- 65
2019-01-19 12:00:00 10.1 3 Sudeste 6 Sudeste 0 -- -- 67
2019-01-19 11:00:00 8.7 2 Sudoeste 6 Sudoeste 0 -- -- 73
2019-01-19 10:00:00 5.9 0 Calma 6 Oeste 0 -- -- 81
2019-01-19 09:00:00 4.8 3 Sudoeste 6 Sudoeste 0 -- -- 83
2019-01-19 08:00:00 4.6 3 Sudoeste 8 Sudoeste 0 -- -- 83
2019-01-19 07:00:00 4.5 5 Sudoeste 11 Sudoeste 0 -- -- 83
2019-01-19 06:00:00 4.5 7 Sur 15 Sur 0 -- -- 82
2019-01-19 05:00:00 4.8 11 Sur 14 Sur 0 -- -- 80
2019-01-19 04:00:00 6 10 Sudoeste 18 Sur 0 -- -- 77
2019-01-19 03:00:00 6.2 12 Sur 18 Sudoeste 0 -- -- 76
2019-01-19 02:00:00 6.9 11 Sudoeste 20 Sudoeste 0 -- -- 74
2019-01-19 01:00:00 7 12 Sudoeste 17 Sudoeste 0 -- -- 73
2019-01-19 00:00:00 6.8 9 Sur 17 Sudoeste 0 -- -- 72